Terminal Aerodrome Forecast
Issued by NWS

Home | Current Version | Previous Version | Text Only | Print | Product List | Glossary On
Versions: 1 2 3 4 5 6 7 8 9 10 11 12 13 14 15 16 17 18 19 20 21 22 23 24 25 26 27 28 29 30 31 32 33 34 35 36 37 38 39 40
000
FTUS43 KDTX 110520
TAFPTK
TAF
KPTK 110520Z 1106/1206 30008KT P6SM BKN025
     FM110900 VRB03KT P6SM SCT028 BKN040
     FM111500 18005KT 6SM -SN OVC025
     FM111700 17006KT 4SM -SN OVC018
      TEMPO 1117/1121 2SM -SN SCT009 OVC015
     FM120000 VRB04KT 1SM -SN OVC007=

USA.gov is the U.S. government's official web portal to all federal, state and local government web resources and services.